Time;durP1;ratioP1;P1;durP2;ratioP2;P2;SDS_P1;SDS_P2;PMS_P1;PMS_P2;Temp;Humidity;BMP_temperature;BMP_pressure;BME280_temperature;BME280_humidity;BME280_pressure;Samples;Min_cycle;Max_cycle;Signal;HPM_P1;HPM_P2
2023/07/29 00:00:43;;;;;;;9.30;5.63;;;18.80;99.90;;;;;;5025355;28;20512;-86
2023/07/29 00:03:09;;;;;;;9.23;6.10;;;18.80;99.90;;;;;;5026307;28;20501;-87
2023/07/29 00:05:36;;;;;;;12.23;5.97;;;18.80;99.90;;;;;;5026452;28;20052;-87
2023/07/29 00:08:02;;;;;;;9.63;5.93;;;18.80;99.90;;;;;;5010151;28;20041;-86
2023/07/29 00:10:28;;;;;;;10.13;6.55;;;18.80;99.90;;;;;;5009511;28;20474;-87
2023/07/29 00:12:54;;;;;;;12.23;6.40;;;18.80;99.90;;;;;;4993576;28;20142;-86
2023/07/29 00:15:19;;;;;;;10.98;6.93;;;18.80;99.90;;;;;;4997491;28;20484;-86
2023/07/29 00:17:45;;;;;;;10.52;6.70;;;18.80;99.90;;;;;;5011745;28;20049;-87
2023/07/29 00:20:11;;;;;;;12.18;7.10;;;18.70;99.90;;;;;;5013207;28;20124;-87
2023/07/29 00:22:37;;;;;;;12.68;6.50;;;18.70;99.90;;;;;;4997321;28;20136;-87
2023/07/29 00:25:03;;;;;;;12.07;6.68;;;18.80;99.90;;;;;;5013469;28;20037;-87
2023/07/29 00:27:28;;;;;;;11.02;6.65;;;18.70;99.90;;;;;;5013826;28;20068;-87
2023/07/29 00:29:54;;;;;;;10.93;6.30;;;18.70;99.90;;;;;;5013789;28;20503;-87
2023/07/29 00:32:20;;;;;;;9.45;6.68;;;18.70;99.90;;;;;;5011698;28;20552;-87
2023/07/29 00:34:45;;;;;;;9.05;6.60;;;18.80;99.90;;;;;;4996657;28;20100;-87
2023/07/29 00:37:12;;;;;;;10.35;6.47;;;18.70;99.90;;;;;;5013013;28;20056;-87
2023/07/29 00:39:37;;;;;;;10.77;7.18;;;18.70;99.90;;;;;;5012567;28;20102;-87
2023/07/29 00:42:04;;;;;;;13.48;7.10;;;18.70;99.90;;;;;;5013434;28;20440;-87
2023/07/29 00:44:31;;;;;;;9.73;6.38;;;18.70;99.90;;;;;;5012384;28;20041;-86
2023/07/29 00:46:58;;;;;;;9.73;7.43;;;18.70;99.90;;;;;;4995204;28;20124;-86
2023/07/29 00:49:24;;;;;;;11.70;7.38;;;18.60;99.90;;;;;;5012133;28;20477;-86
2023/07/29 00:51:50;;;;;;;14.27;6.68;;;18.70;99.90;;;;;;5022924;28;20042;-87
2023/07/29 00:54:16;;;;;;;12.07;7.13;;;18.60;99.90;;;;;;4995734;28;20048;-86
2023/07/29 00:56:42;;;;;;;8.63;6.55;;;18.60;99.90;;;;;;5038822;28;20033;-87
2023/07/29 00:59:08;;;;;;;11.05;7.10;;;18.60;99.90;;;;;;5013136;28;20550;-87
2023/07/29 01:01:34;;;;;;;10.63;6.53;;;18.60;99.90;;;;;;5020499;28;20045;-87
2023/07/29 01:03:59;;;;;;;10.90;6.65;;;18.60;99.90;;;;;;4996385;28;20065;-87
2023/07/29 01:07:14;;;;;;;11.55;7.32;;;18.60;99.90;;;;;;4995581;28;20041;-87
2023/07/29 01:10:03;;;;;;;12.95;7.45;;;18.60;99.90;;;;;;4952253;28;20142;-87
2023/07/29 01:13:01;;;;;;;10.43;7.45;;;18.50;99.90;;;;;;5014635;28;20073;-87
2023/07/29 01:15:43;;;;;;;10.13;7.25;;;18.50;99.90;;;;;;5011926;28;20133;-87
2023/07/29 01:18:26;;;;;;;10.43;7.50;;;18.50;99.90;;;;;;5012634;28;20493;-87
2023/07/29 01:21:02;;;;;;;11.18;7.60;;;18.40;99.90;;;;;;5033920;28;20085;-87
2023/07/29 01:23:32;;;;;;;16.15;7.75;;;18.40;99.90;;;;;;5012894;28;20049;-87
2023/07/29 01:25:58;;;;;;;12.30;6.88;;;18.40;99.90;;;;;;5012642;28;20046;-87
2023/07/29 01:28:24;;;;;;;13.13;7.85;;;18.30;99.90;;;;;;5027255;28;20030;-87
2023/07/29 01:30:57;;;;;;;10.00;7.50;;;18.30;99.90;;;;;;5022179;28;20048;-87
2023/07/29 01:33:26;;;;;;;10.57;7.07;;;18.30;99.90;;;;;;5025272;28;20167;-86
2023/07/29 01:35:58;;;;;;;13.15;7.70;;;18.30;99.90;;;;;;5023668;28;20385;-87
2023/07/29 01:38:34;;;;;;;12.85;7.82;;;18.30;99.90;;;;;;4995573;28;20034;-87
2023/07/29 01:41:06;;;;;;;11.77;7.97;;;18.20;99.90;;;;;;4995572;28;20148;-87
2023/07/29 01:43:32;;;;;;;12.25;8.20;;;18.20;99.90;;;;;;5011636;28;20446;-87
2023/07/29 01:45:58;;;;;;;11.63;7.35;;;18.10;99.90;;;;;;5028517;28;20049;-87
2023/07/29 01:48:24;;;;;;;16.48;8.38;;;18.10;99.90;;;;;;5003651;28;20095;-86
2023/07/29 01:50:50;;;;;;;11.88;8.77;;;18.10;99.90;;;;;;5015407;28;20452;-87
2023/07/29 01:53:16;;;;;;;11.80;8.73;;;18.00;99.90;;;;;;4995821;28;20049;-86
2023/07/29 01:55:44;;;;;;;16.25;8.13;;;18.00;99.90;;;;;;5010051;28;20509;-87
2023/07/29 01:58:10;;;;;;;12.65;7.65;;;17.90;99.90;;;;;;4996191;28;20053;-87
2023/07/29 02:00:35;;;;;;;11.73;7.38;;;17.90;99.90;;;;;;4999683;28;20033;-87
2023/07/29 02:03:01;;;;;;;10.05;7.82;;;17.80;99.90;;;;;;4994775;28;20053;-87
2023/07/29 02:05:27;;;;;;;10.82;7.85;;;17.80;99.90;;;;;;5011374;28;20029;-86
2023/07/29 02:07:53;;;;;;;10.95;7.63;;;17.80;99.90;;;;;;4995644;28;20507;-87
2023/07/29 02:10:18;;;;;;;12.02;8.07;;;17.80;99.90;;;;;;5010975;28;20045;-87
2023/07/29 02:12:44;;;;;;;11.95;7.72;;;17.70;99.90;;;;;;4995190;28;20482;-86
2023/07/29 02:15:10;;;;;;;11.35;8.70;;;17.70;99.90;;;;;;5011004;28;20429;-86
2023/07/29 02:17:36;;;;;;;11.77;8.52;;;17.70;99.90;;;;;;4994714;28;20511;-87
2023/07/29 02:20:03;;;;;;;11.52;8.15;;;17.60;99.90;;;;;;4996614;28;20052;-86
2023/07/29 02:22:29;;;;;;;12.50;8.52;;;17.60;99.90;;;;;;4995241;28;20407;-86
2023/07/29 02:24:55;;;;;;;10.93;8.40;;;17.60;99.90;;;;;;4994040;28;20117;-87
2023/07/29 02:27:21;;;;;;;13.85;8.23;;;17.60;99.90;;;;;;4994847;28;20057;-87
2023/07/29 02:29:46;;;;;;;16.65;8.43;;;17.60;99.90;;;;;;4994598;28;20041;-87
2023/07/29 02:32:12;;;;;;;14.27;8.98;;;17.50;99.90;;;;;;4999093;28;20037;-87
2023/07/29 02:34:38;;;;;;;15.07;7.65;;;17.50;99.90;;;;;;4998813;28;20580;-87
2023/07/29 02:37:04;;;;;;;11.13;7.85;;;17.50;99.90;;;;;;5003195;28;20160;-87
2023/07/29 02:39:30;;;;;;;11.05;8.35;;;17.40;99.90;;;;;;4998242;28;20053;-87
2023/07/29 02:41:58;;;;;;;15.50;8.48;;;17.40;99.90;;;;;;4993711;28;20124;-87
2023/07/29 02:44:24;;;;;;;13.73;8.32;;;17.40;99.90;;;;;;5011189;28;20092;-86
2023/07/29 02:46:52;;;;;;;16.77;8.38;;;17.40;99.90;;;;;;5034354;28;20102;-87
2023/07/29 02:49:17;;;;;;;14.65;8.70;;;17.40;99.90;;;;;;5015398;28;20059;-87
2023/07/29 02:51:43;;;;;;;11.48;7.70;;;17.40;99.90;;;;;;5010043;28;20552;-86
2023/07/29 02:54:09;;;;;;;13.65;8.20;;;17.30;99.90;;;;;;5006856;28;20136;-87
2023/07/29 02:56:34;;;;;;;13.05;7.80;;;17.30;99.90;;;;;;5003650;28;20135;-87
2023/07/29 02:59:01;;;;;;;12.40;7.90;;;17.30;99.90;;;;;;4997766;28;20409;-87
2023/07/29 03:01:27;;;;;;;13.73;8.52;;;17.30;99.90;;;;;;5002917;28;20163;-87
2023/07/29 03:03:53;;;;;;;12.15;8.23;;;17.30;99.90;;;;;;4998073;28;20085;-87
2023/07/29 03:06:18;;;;;;;14.90;7.88;;;17.30;99.90;;;;;;4993224;28;20034;-86
2023/07/29 03:08:45;;;;;;;14.35;7.50;;;17.20;99.90;;;;;;4995034;28;20950;-86
2023/07/29 03:11:15;;;;;;;13.02;7.95;;;17.20;99.90;;;;;;5010295;28;20045;-87
2023/07/29 03:13:41;;;;;;;11.05;7.28;;;17.20;99.90;;;;;;5022488;28;20379;-87
2023/07/29 03:16:11;;;;;;;19.42;7.97;;;17.20;99.90;;;;;;4993133;28;20124;-86
2023/07/29 03:18:38;;;;;;;13.40;7.60;;;17.20;99.90;;;;;;4993732;28;20084;-87
2023/07/29 03:21:04;;;;;;;13.57;7.70;;;17.20;99.90;;;;;;5045167;28;20040;-86
2023/07/29 03:23:30;;;;;;;16.13;7.85;;;17.20;99.90;;;;;;4996286;28;20041;-86
2023/07/29 03:25:58;;;;;;;11.88;7.82;;;17.10;99.90;;;;;;4993601;28;20046;-87
2023/07/29 03:28:29;;;;;;;9.40;7.00;;;17.10;99.90;;;;;;4992862;28;20036;-87
2023/07/29 03:30:56;;;;;;;12.30;7.82;;;17.10;99.90;;;;;;5026261;28;20046;-87
2023/07/29 03:33:22;;;;;;;10.43;7.30;;;17.10;99.90;;;;;;5008682;28;20045;-86
2023/07/29 03:35:49;;;;;;;12.50;7.55;;;17.10;99.90;;;;;;5009128;28;20494;-86
2023/07/29 03:38:14;;;;;;;12.77;7.32;;;17.00;99.90;;;;;;5010176;28;20061;-86
2023/07/29 03:40:41;;;;;;;16.05;7.50;;;17.00;99.90;;;;;;5025793;28;20129;-87
2023/07/29 03:43:07;;;;;;;11.82;7.57;;;17.00;99.90;;;;;;5008298;28;20398;-87
2023/07/29 03:45:33;;;;;;;11.00;7.13;;;17.00;99.90;;;;;;5009385;28;20483;-86
2023/07/29 03:47:59;;;;;;;12.30;7.15;;;17.00;99.90;;;;;;5010964;28;20045;-86
2023/07/29 03:50:25;;;;;;;13.82;7.55;;;16.90;99.90;;;;;;5017359;28;20048;-86
2023/07/29 03:52:51;;;;;;;13.57;7.40;;;16.90;99.90;;;;;;4993061;28;20196;-86
2023/07/29 03:55:17;;;;;;;14.73;7.43;;;16.90;99.90;;;;;;5009107;28;20300;-86
2023/07/29 03:57:42;;;;;;;8.82;6.38;;;16.90;99.90;;;;;;4992308;28;20041;-88
2023/07/29 04:00:11;;;;;;;9.40;6.60;;;16.90;99.90;;;;;;5010156;28;20188;-86
2023/07/29 04:02:38;;;;;;;10.68;6.90;;;16.80;99.90;;;;;;4997027;28;20048;-86
2023/07/29 04:05:05;;;;;;;9.65;6.68;;;16.80;99.90;;;;;;5012863;28;20045;-86
2023/07/29 04:07:31;;;;;;;16.00;7.07;;;16.80;99.90;;;;;;5027199;28;20182;-86
2023/07/29 04:09:57;;;;;;;10.43;6.45;;;16.80;99.90;;;;;;5009125;28;20073;-86
2023/07/29 04:12:23;;;;;;;12.00;6.80;;;16.80;99.90;;;;;;5008613;28;20538;-86
2023/07/29 04:14:50;;;;;;;12.25;6.20;;;16.80;99.90;;;;;;5025693;28;20379;-86
2023/07/29 04:17:15;;;;;;;9.82;6.90;;;16.80;99.90;;;;;;5026094;28;20058;-86
2023/07/29 04:19:41;;;;;;;11.02;6.30;;;16.80;99.90;;;;;;5009041;28;20045;-87
2023/07/29 04:22:07;;;;;;;11.50;5.95;;;16.80;99.90;;;;;;5022251;28;20049;-87
2023/07/29 04:24:32;;;;;;;9.93;6.07;;;16.90;99.90;;;;;;5008356;28;20049;-87
2023/07/29 04:26:58;;;;;;;13.95;6.30;;;16.90;99.90;;;;;;5014747;28;20049;-87
2023/07/29 04:29:24;;;;;;;11.82;6.43;;;16.90;99.90;;;;;;5029436;28;20041;-86
2023/07/29 04:31:50;;;;;;;14.30;6.55;;;16.90;99.90;;;;;;4991517;28;20488;-86
2023/07/29 04:34:17;;;;;;;13.32;7.30;;;17.00;99.90;;;;;;5009605;28;20158;-86
2023/07/29 04:36:43;;;;;;;15.02;7.38;;;17.00;99.90;;;;;;4992338;28;20517;-86
2023/07/29 04:39:09;;;;;;;14.25;7.07;;;17.00;99.90;;;;;;5026841;28;20073;-87
2023/07/29 04:41:34;;;;;;;12.15;6.80;;;17.10;99.90;;;;;;4992512;28;20429;-87
2023/07/29 04:44:00;;;;;;;9.95;5.97;;;17.10;99.90;;;;;;5004698;28;20052;-87
2023/07/29 04:46:26;;;;;;;12.10;6.60;;;17.10;99.90;;;;;;4992555;28;20055;-86
2023/07/29 04:48:51;;;;;;;11.55;6.32;;;17.20;99.90;;;;;;5026702;28;20042;-87
2023/07/29 04:51:17;;;;;;;13.68;6.22;;;17.20;99.90;;;;;;4992500;28;20043;-87
2023/07/29 04:53:43;;;;;;;9.13;4.60;;;17.30;99.90;;;;;;4992473;28;20045;-87
2023/07/29 04:56:09;;;;;;;7.28;3.42;;;17.30;99.90;;;;;;5008910;28;20037;-87
2023/07/29 04:58:35;;;;;;;8.40;3.50;;;17.40;99.90;;;;;;5008937;28;20048;-87
2023/07/29 05:01:02;;;;;;;8.57;3.58;;;17.50;99.90;;;;;;4991619;28;20382;-87
2023/07/29 05:03:28;;;;;;;10.10;4.13;;;17.50;99.90;;;;;;5009173;28;20454;-87
2023/07/29 05:05:55;;;;;;;10.90;4.70;;;17.60;99.90;;;;;;5024013;28;20088;-87
2023/07/29 05:08:21;;;;;;;10.20;4.95;;;17.60;99.90;;;;;;5010262;28;20041;-87
2023/07/29 05:10:51;;;;;;;10.30;4.95;;;17.70;99.90;;;;;;5012017;28;20060;-86
2023/07/29 05:13:17;;;;;;;8.77;4.20;;;17.70;99.90;;;;;;5011737;28;20537;-86
2023/07/29 05:15:43;;;;;;;11.43;4.35;;;17.70;99.90;;;;;;5011568;28;20085;-87
2023/07/29 05:18:09;;;;;;;9.77;4.40;;;17.70;99.90;;;;;;4996825;28;20127;-87
2023/07/29 05:20:34;;;;;;;9.27;4.03;;;17.70;99.90;;;;;;4999202;28;20084;-87
2023/07/29 05:23:00;;;;;;;13.23;3.70;;;17.70;99.90;;;;;;5018993;28;20077;-87
2023/07/29 05:25:26;;;;;;;8.77;2.92;;;17.70;99.90;;;;;;5012477;28;20041;-86
2023/07/29 05:27:52;;;;;;;10.18;3.30;;;17.70;99.90;;;;;;5011757;28;20041;-87
2023/07/29 05:30:18;;;;;;;7.03;2.85;;;17.70;99.90;;;;;;4996218;28;20121;-86
2023/07/29 05:32:43;;;;;;;9.35;2.90;;;17.80;99.90;;;;;;5002331;28;20543;-86
2023/07/29 05:35:10;;;;;;;9.00;2.90;;;17.70;99.90;;;;;;5011623;28;20504;-86
2023/07/29 05:37:39;;;;;;;8.10;2.67;;;17.80;99.90;;;;;;5028356;28;20037;-86
2023/07/29 05:40:06;;;;;;;5.68;2.70;;;17.80;99.90;;;;;;5012775;28;20120;-86
2023/07/29 05:42:32;;;;;;;8.02;2.67;;;17.80;99.90;;;;;;5010192;28;20054;-86
2023/07/29 05:44:58;;;;;;;5.10;2.60;;;17.80;99.90;;;;;;4982749;28;20060;-85
2023/07/29 05:47:24;;;;;;;6.47;2.95;;;17.80;99.90;;;;;;5010917;28;20045;-86
2023/07/29 05:49:49;;;;;;;5.40;3.05;;;17.90;99.90;;;;;;5024402;28;20049;-87
2023/07/29 05:52:15;;;;;;;7.90;3.03;;;17.90;99.90;;;;;;4995410;28;20392;-86
2023/07/29 05:54:44;;;;;;;7.15;3.15;;;17.90;99.90;;;;;;5017751;28;20128;-86
2023/07/29 05:57:11;;;;;;;7.72;3.10;;;17.90;99.90;;;;;;5017220;28;20129;-86
2023/07/29 05:59:38;;;;;;;8.75;3.53;;;17.90;99.90;;;;;;5046329;28;20041;-86
2023/07/29 06:02:04;;;;;;;11.15;3.50;;;18.00;99.90;;;;;;5032914;28;20366;-87
2023/07/29 06:04:30;;;;;;;9.88;3.85;;;17.90;99.90;;;;;;5010848;28;20080;-87
2023/07/29 06:06:56;;;;;;;9.95;3.67;;;18.00;99.90;;;;;;4994724;28;20069;-87
2023/07/29 06:09:22;;;;;;;8.60;2.80;;;18.00;99.90;;;;;;5001397;28;20053;-87
2023/07/29 06:11:49;;;;;;;6.28;2.63;;;18.00;99.90;;;;;;4998511;28;20051;-87
2023/07/29 06:14:16;;;;;;;12.07;2.85;;;18.00;99.90;;;;;;5045239;28;20049;-87
2023/07/29 06:16:42;;;;;;;9.77;3.20;;;18.00;99.90;;;;;;4996922;28;20045;-87
2023/07/29 06:19:08;;;;;;;7.18;2.60;;;18.10;99.90;;;;;;5029124;28;20460;-87
2023/07/29 06:21:35;;;;;;;5.10;2.40;;;18.10;99.90;;;;;;4993924;28;20595;-87
2023/07/29 06:24:01;;;;;;;6.82;2.33;;;18.10;99.90;;;;;;5012653;28;20520;-88
2023/07/29 06:26:27;;;;;;;6.43;2.33;;;18.10;99.90;;;;;;5015910;28;20118;-89
2023/07/29 06:28:53;;;;;;;7.43;3.05;;;18.10;99.90;;;;;;5012107;28;20548;-88
2023/07/29 06:31:19;;;;;;;6.30;2.72;;;18.20;99.90;;;;;;5013300;28;20049;-89
2023/07/29 06:33:45;;;;;;;5.85;2.63;;;18.20;99.90;;;;;;5015905;28;20045;-88
2023/07/29 06:36:11;;;;;;;8.82;2.63;;;18.30;99.90;;;;;;5012672;28;20083;-89
2023/07/29 06:38:38;;;;;;;8.60;2.50;;;18.50;99.90;;;;;;5012413;28;20561;-87
2023/07/29 06:41:04;;;;;;;9.13;2.50;;;18.60;99.90;;;;;;5012774;28;20389;-89
2023/07/29 06:43:30;;;;;;;7.03;2.50;;;18.80;99.90;;;;;;5030061;28;20037;-90
2023/07/29 06:45:56;;;;;;;14.18;2.90;;;19.00;99.90;;;;;;5013861;28;20041;-91
2023/07/29 06:48:22;;;;;;;13.27;2.80;;;19.20;99.90;;;;;;5007446;28;20049;-90
2023/07/29 06:50:47;;;;;;;12.82;2.80;;;19.20;99.90;;;;;;4996865;28;20131;-91
2023/07/29 06:53:13;;;;;;;9.38;2.53;;;19.20;99.90;;;;;;5013817;28;20048;-88
2023/07/29 06:55:39;;;;;;;9.43;2.45;;;19.20;99.90;;;;;;5008098;28;20682;-89
2023/07/29 06:58:05;;;;;;;10.80;2.78;;;19.20;99.90;;;;;;5013043;28;20041;-89
2023/07/29 07:00:31;;;;;;;9.25;2.80;;;19.20;99.90;;;;;;5000163;28;20113;-91
2023/07/29 07:02:56;;;;;;;9.60;2.60;;;19.20;99.90;;;;;;5001113;28;20118;-90
2023/07/29 07:05:22;;;;;;;12.20;2.92;;;19.30;99.90;;;;;;4996799;28;20041;-89
2023/07/29 07:07:48;;;;;;;11.02;2.58;;;19.30;99.90;;;;;;5016803;28;20578;-90
2023/07/29 07:10:14;;;;;;;11.32;2.92;;;19.40;99.90;;;;;;5013559;28;20052;-93
2023/07/29 07:12:40;;;;;;;7.75;2.67;;;19.40;99.90;;;;;;4995756;28;20046;-91
2023/07/29 07:15:06;;;;;;;12.18;3.08;;;19.50;99.90;;;;;;5029560;28;20136;-95
2023/07/29 07:17:32;;;;;;;11.65;3.50;;;19.50;99.90;;;;;;5011323;28;20050;-91
2023/07/29 07:19:57;;;;;;;8.63;3.20;;;19.60;99.90;;;;;;5009024;28;20045;-90
2023/07/29 07:22:24;;;;;;;13.35;3.03;;;19.70;99.90;;;;;;4999182;28;20052;-90
2023/07/29 07:24:50;;;;;;;7.70;2.83;;;19.70;99.90;;;;;;5010684;28;20049;-91
2023/07/29 07:27:16;;;;;;;9.05;3.05;;;19.70;99.90;;;;;;5014416;28;20374;-90
2023/07/29 07:29:41;;;;;;;11.40;3.30;;;19.70;99.90;;;;;;5027620;28;20114;-90
2023/07/29 07:32:07;;;;;;;8.65;3.42;;;19.70;99.90;;;;;;5019046;28;20044;-90
2023/07/29 07:34:34;;;;;;;14.35;3.63;;;19.70;99.90;;;;;;5008764;28;20045;-91
2023/07/29 07:37:00;;;;;;;8.63;3.00;;;19.80;99.90;;;;;;4992454;28;20049;-89
2023/07/29 07:39:26;;;;;;;9.90;3.40;;;19.80;99.90;;;;;;4992471;28;20507;-91
2023/07/29 07:41:52;;;;;;;7.88;3.10;;;19.80;99.90;;;;;;5016224;28;20057;-90
2023/07/29 07:44:19;;;;;;;8.40;3.35;;;19.80;99.90;;;;;;5005948;28;20111;-91
2023/07/29 07:46:45;;;;;;;11.10;2.78;;;19.80;99.90;;;;;;5002459;28;20100;-89
2023/07/29 07:49:12;;;;;;;6.95;3.03;;;19.80;99.90;;;;;;5009029;28;20400;-87
2023/07/29 07:51:38;;;;;;;9.45;3.25;;;19.90;99.90;;;;;;5008470;28;20044;-86
2023/07/29 07:54:04;;;;;;;10.48;3.30;;;19.90;99.90;;;;;;5011623;28;20041;-87
2023/07/29 07:56:29;;;;;;;11.52;3.30;;;20.00;99.90;;;;;;5002101;28;20120;-87
2023/07/29 07:58:55;;;;;;;7.80;2.70;;;20.10;99.90;;;;;;5011679;28;20042;-85
2023/07/29 08:01:21;;;;;;;7.63;2.80;;;20.10;99.90;;;;;;4991977;28;20599;-86
2023/07/29 08:03:46;;;;;;;6.97;2.85;;;20.10;99.90;;;;;;5028195;28;20049;-87
2023/07/29 08:06:12;;;;;;;7.63;3.35;;;20.20;99.90;;;;;;5019369;28;20182;-87
2023/07/29 08:08:38;;;;;;;14.40;3.58;;;20.20;99.90;;;;;;4992299;28;20076;-86
2023/07/29 08:11:03;;;;;;;9.80;3.53;;;20.30;99.90;;;;;;5009385;28;20042;-87
2023/07/29 08:13:29;;;;;;;7.60;3.35;;;20.50;99.90;;;;;;4993081;28;20091;-87
2023/07/29 08:15:55;;;;;;;8.45;2.85;;;20.70;99.90;;;;;;5007770;28;20158;-87
2023/07/29 08:18:21;;;;;;;9.27;2.67;;;20.80;99.90;;;;;;5009841;28;20053;-86
2023/07/29 08:21:02;;;;;;;8.55;2.78;;;20.90;99.90;;;;;;4995868;28;20072;-87
2023/07/29 08:23:32;;;;;;;8.45;3.33;;;21.00;99.90;;;;;;5025296;28;20108;-87
2023/07/29 08:26:03;;;;;;;10.73;2.78;;;21.10;99.90;;;;;;4992823;28;20041;-87
2023/07/29 08:28:34;;;;;;;7.43;2.90;;;21.10;99.90;;;;;;4994476;28;20034;-87
2023/07/29 08:31:00;;;;;;;9.32;3.17;;;21.00;99.90;;;;;;5008733;28;20560;-87
2023/07/29 08:33:26;;;;;;;9.32;2.50;;;20.90;99.90;;;;;;4994357;28;20052;-87
2023/07/29 08:35:52;;;;;;;7.07;2.15;;;20.90;99.90;;;;;;5009110;28;20042;-87
2023/07/29 08:38:19;;;;;;;7.95;2.70;;;21.00;99.90;;;;;;4993327;28;20045;-86
2023/07/29 08:41:06;;;;;;;10.30;3.00;;;21.20;99.90;;;;;;5026911;28;20071;-86
2023/07/29 08:43:32;;;;;;;9.27;1.90;;;21.40;99.90;;;;;;5020005;28;20041;-88
2023/07/29 08:45:59;;;;;;;6.03;1.92;;;21.40;99.90;;;;;;5025706;28;20514;-88
2023/07/29 08:48:41;;;;;;;9.07;2.33;;;21.40;99.90;;;;;;5030740;28;20497;-87
2023/07/29 08:51:09;;;;;;;11.05;2.63;;;21.30;99.90;;;;;;4996390;28;20036;-87
2023/07/29 08:53:35;;;;;;;8.93;2.10;;;21.30;99.90;;;;;;5014881;28;20416;-87
2023/07/29 08:56:01;;;;;;;12.05;2.10;;;21.30;99.90;;;;;;5018536;28;20037;-86
2023/07/29 08:58:28;;;;;;;7.95;2.10;;;21.20;99.90;;;;;;5014089;28;20485;-86
2023/07/29 09:00:54;;;;;;;9.45;2.17;;;21.20;99.90;;;;;;5011321;28;20120;-86
2023/07/29 09:03:20;;;;;;;6.80;1.73;;;21.20;99.90;;;;;;5031694;28;20577;-87
2023/07/29 09:05:47;;;;;;;6.13;2.20;;;21.30;99.90;;;;;;5029947;28;20045;-87
2023/07/29 09:08:13;;;;;;;11.75;2.20;;;21.40;99.90;;;;;;5021894;28;20123;-87
2023/07/29 09:10:40;;;;;;;9.35;2.50;;;21.50;99.90;;;;;;5010469;28;20669;-86
2023/07/29 09:13:06;;;;;;;12.60;2.60;;;21.70;99.90;;;;;;5036493;28;20104;-87
2023/07/29 09:15:36;;;;;;;7.95;2.38;;;22.00;99.90;;;;;;5034738;28;20040;-87
2023/07/29 09:18:31;;;;;;;7.65;1.88;;;22.20;99.90;;;;;;5028059;28;20536;-87
2023/07/29 09:21:02;;;;;;;8.20;2.40;;;22.30;99.90;;;;;;5007057;28;20080;-87
2023/07/29 09:23:28;;;;;;;7.60;1.80;;;22.30;99.90;;;;;;5022817;28;20120;-86
2023/07/29 09:26:03;;;;;;;6.88;1.95;;;22.20;99.90;;;;;;4996279;28;20578;-87
2023/07/29 09:28:34;;;;;;;7.43;2.00;;;22.10;99.90;;;;;;5000124;28;20071;-92
2023/07/29 09:31:00;;;;;;;7.85;2.03;;;22.00;99.90;;;;;;5033985;28;20455;-86
2023/07/29 09:33:26;;;;;;;7.93;1.80;;;21.90;99.90;;;;;;5014404;28;20045;-86
2023/07/29 09:35:52;;;;;;;7.18;1.65;;;21.90;99.90;;;;;;5029272;28;20036;-87
2023/07/29 09:38:18;;;;;;;4.07;1.25;;;21.90;99.90;;;;;;5028502;28;20342;-87
2023/07/29 09:40:45;;;;;;;7.68;1.70;;;21.90;99.90;;;;;;4997378;28;20041;-92
2023/07/29 09:43:11;;;;;;;5.90;1.58;;;22.00;99.90;;;;;;5017264;28;20036;-88
2023/07/29 09:45:37;;;;;;;4.43;1.40;;;22.10;99.90;;;;;;5021120;28;20048;-88
2023/07/29 09:48:10;;;;;;;11.60;1.83;;;22.30;99.90;;;;;;4999691;28;20128;-87
2023/07/29 09:50:36;;;;;;;10.57;1.40;;;22.40;99.90;;;;;;5031713;28;20040;-88
2023/07/29 09:53:03;;;;;;;6.82;1.00;;;22.50;99.90;;;;;;5016312;28;20085;-90
2023/07/29 09:55:29;;;;;;;4.47;1.10;;;22.50;99.90;;;;;;5013591;28;20052;-89
2023/07/29 09:58:01;;;;;;;5.57;1.40;;;22.40;99.90;;;;;;5039089;28;20060;-95
2023/07/29 10:00:32;;;;;;;6.15;1.20;;;22.30;99.90;;;;;;5024199;28;20049;-91
2023/07/29 10:03:07;;;;;;;4.47;0.90;;;22.10;99.90;;;;;;5030131;28;20049;-94
2023/07/29 10:05:34;;;;;;;5.30;1.00;;;22.10;99.90;;;;;;5023629;28;20068;-91
2023/07/29 10:08:01;;;;;;;8.27;1.10;;;22.10;99.90;;;;;;5010984;28;20052;-93
2023/07/29 10:10:27;;;;;;;4.97;1.35;;;22.30;99.90;;;;;;4995043;28;20120;-90
2023/07/29 10:12:56;;;;;;;7.68;1.30;;;22.60;99.90;;;;;;5003744;28;20199;-90
2023/07/29 10:15:24;;;;;;;7.90;1.13;;;22.90;99.90;;;;;;4995270;28;20128;-92
2023/07/29 10:17:51;;;;;;;7.20;1.30;;;22.80;99.90;;;;;;4995445;28;20127;-91
2023/07/29 10:20:17;;;;;;;8.85;1.45;;;22.90;99.90;;;;;;5009709;28;20045;-92
2023/07/29 10:22:46;;;;;;;5.05;1.17;;;23.20;99.90;;;;;;4996997;28;20037;-91
2023/07/29 10:25:24;;;;;;;6.40;1.13;;;23.40;99.90;;;;;;5030108;28;20041;-91
2023/07/29 10:28:04;;;;;;;7.78;1.25;;;23.50;99.90;;;;;;5012812;28;20053;-93
2023/07/29 10:30:31;;;;;;;5.03;1.05;;;23.50;99.90;;;;;;5017375;28;20096;-92
2023/07/29 10:33:01;;;;;;;5.95;1.00;;;23.40;99.90;;;;;;5020703;28;20095;-92
2023/07/29 10:35:37;;;;;;;4.90;1.20;;;23.40;99.90;;;;;;5018458;28;20037;-92
2023/07/29 10:38:04;;;;;;;4.85;1.02;;;23.30;99.90;;;;;;5016654;28;20041;-92
2023/07/29 10:40:48;;;;;;;3.83;1.15;;;23.40;99.90;;;;;;5029451;28;20044;-93
2023/07/29 10:43:23;;;;;;;3.58;0.82;;;23.40;99.90;;;;;;5012420;28;20045;-94
2023/07/29 10:45:49;;;;;;;5.28;0.98;;;23.40;99.90;;;;;;5006756;28;20128;-94
2023/07/29 10:48:40;;;;;;;5.35;1.00;;;23.70;99.90;;;;;;5013893;28;20148;-93
2023/07/29 10:51:32;;;;;;;2.95;0.80;;;23.80;99.90;;;;;;5013062;28;20045;-90
2023/07/29 10:54:11;;;;;;;6.78;0.68;;;23.80;99.90;;;;;;4997048;28;20049;-92
2023/07/29 10:56:41;;;;;;;7.70;1.02;;;24.00;99.90;;;;;;4997191;28;20591;-92
2023/07/29 10:59:14;;;;;;;4.28;0.93;;;24.10;99.90;;;;;;5009943;28;20052;-94
2023/07/29 11:01:44;;;;;;;7.20;1.00;;;23.90;99.90;;;;;;5011444;28;20068;-93
2023/07/29 11:04:26;;;;;;;8.32;1.35;;;23.70;99.90;;;;;;4983373;28;20449;-93
2023/07/29 11:07:28;;;;;;;4.50;1.30;;;23.50;99.90;;;;;;4995767;28;20084;-93
2023/07/29 11:10:02;;;;;;;4.13;1.30;;;23.40;99.90;;;;;;4975293;28;20152;-93
2023/07/29 11:12:45;;;;;;;4.78;1.13;;;23.40;99.90;;;;;;5009276;28;20073;-92
2023/07/29 11:15:11;;;;;;;6.25;1.50;;;23.50;99.90;;;;;;5015902;28;20050;-92
2023/07/29 11:17:42;;;;;;;6.13;1.55;;;23.40;99.90;;;;;;5007069;28;20180;-93
2023/07/29 11:20:09;;;;;;;14.48;1.58;;;23.20;99.90;;;;;;5011648;28;20046;-90
2023/07/29 11:22:38;;;;;;;7.22;1.10;;;22.90;99.90;;;;;;5003421;28;20091;-92
2023/07/29 11:25:07;;;;;;;6.93;1.25;;;22.50;99.90;;;;;;4995779;28;20148;-91
2023/07/29 11:27:32;;;;;;;4.10;1.30;;;22.20;99.90;;;;;;4995861;28;20124;-94
2023/07/29 11:30:10;;;;;;;5.05;0.88;;;22.10;99.90;;;;;;5011648;28;20156;-87
2023/07/29 11:32:39;;;;;;;5.38;1.00;;;22.20;99.90;;;;;;5029883;28;20117;-90
2023/07/29 11:35:16;;;;;;;4.97;0.80;;;22.40;99.90;;;;;;4998502;28;20057;-89
2023/07/29 11:37:46;;;;;;;7.00;0.90;;;22.70;99.90;;;;;;5015192;28;20537;-91
2023/07/29 11:40:22;;;;;;;4.22;0.88;;;22.90;99.90;;;;;;4988692;28;20045;-90
2023/07/29 11:42:50;;;;;;;2.75;0.70;;;23.20;99.90;;;;;;5028587;28;20037;-89
2023/07/29 11:45:16;;;;;;;4.30;1.33;;;23.40;99.90;;;;;;5012734;28;20049;-90
2023/07/29 11:47:42;;;;;;;4.28;1.20;;;23.40;99.90;;;;;;5041042;28;20737;-91
2023/07/29 11:50:10;;;;;;;3.97;1.10;;;23.30;99.90;;;;;;5013175;28;20063;-90
2023/07/29 11:52:41;;;;;;;6.43;1.00;;;23.20;99.90;;;;;;5029957;28;20049;-90
2023/07/29 11:55:07;;;;;;;9.85;1.35;;;23.10;99.90;;;;;;5003264;28;20044;-90
2023/07/29 11:57:38;;;;;;;6.07;1.40;;;22.90;99.90;;;;;;5029790;28;20176;-89
2023/07/29 12:00:06;;;;;;;3.70;1.33;;;22.90;99.90;;;;;;5028497;28;20108;-90
2023/07/29 12:02:32;;;;;;;10.77;1.40;;;23.00;99.90;;;;;;5020719;28;20107;-89
2023/07/29 12:04:59;;;;;;;47.85;3.20;;;23.20;99.90;;;;;;4998117;28;20559;-89
2023/07/29 12:07:25;;;;;;;16.48;1.92;;;23.50;99.90;;;;;;5002410;28;20040;-91
2023/07/29 12:09:52;;;;;;;5.95;1.30;;;23.60;99.90;;;;;;5008741;28;20385;-90
2023/07/29 12:12:18;;;;;;;9.02;1.50;;;23.40;99.90;;;;;;5012427;28;20559;-94
2023/07/29 12:14:47;;;;;;;6.97;1.70;;;23.20;99.90;;;;;;5010377;28;20057;-90
2023/07/29 12:17:13;;;;;;;5.07;1.30;;;23.00;99.90;;;;;;5020436;28;20148;-93
2023/07/29 12:19:40;;;;;;;5.88;1.27;;;22.70;99.90;;;;;;5046444;28;20102;-91
2023/07/29 12:22:07;;;;;;;11.45;1.73;;;22.60;99.90;;;;;;5020744;28;20400;-92
2023/07/29 12:24:35;;;;;;;6.50;1.40;;;22.40;99.90;;;;;;5021901;28;20057;-92
2023/07/29 12:27:01;;;;;;;8.20;1.52;;;22.40;99.90;;;;;;5008525;28;20457;-91
2023/07/29 12:29:27;;;;;;;7.38;2.40;;;22.50;99.90;;;;;;4998578;28;20049;-94
2023/07/29 12:32:01;;;;;;;5.97;2.05;;;22.50;99.90;;;;;;5015489;28;20057;-93
2023/07/29 12:34:28;;;;;;;6.93;1.60;;;22.60;99.90;;;;;;5028493;28;20044;-95
2023/07/29 12:36:55;;;;;;;8.88;2.08;;;22.50;99.90;;;;;;5015303;28;20049;-94
2023/07/29 12:39:22;;;;;;;5.85;1.95;;;22.40;99.90;;;;;;5015423;28;20077;-93
2023/07/29 12:41:49;;;;;;;6.13;1.70;;;22.50;99.90;;;;;;5039798;28;20052;-93
2023/07/29 12:44:15;;;;;;;5.90;1.73;;;22.80;99.90;;;;;;5016292;28;20045;-93
2023/07/29 12:46:41;;;;;;;4.85;1.30;;;23.00;99.90;;;;;;4998412;28;20041;-93